This is the latest recevied weather packets stored in our database for station/object DG0PX-12. If no packets are shown the sender has not sent any weather packets the latest 10 day(s).
| Time | Temp. | Humidity | Pressure | Rain* | Wind** | Luminosity | Snow |
|---|---|---|---|---|---|---|---|
| 1777875320 | 18.89° C | 38% | 948.1 hPa | - | - | - | - |
| 1777874420 | 17.22° C | 45% | 948 hPa | - | - | - | - |
| 1777873519 | 16.11° C | 53% | 948 hPa | - | - | - | - |
| 1777872620 | 16.67° C | 51% | 948 hPa | - | - | - | - |
| 1777871719 | 15.56° C | 56% | 947.9 hPa | - | - | - | - |
| 1777870819 | 15.56° C | 54% | 947.7 hPa | - | - | - | - |
| 1777869919 | 15.56° C | 52% | 947.8 hPa | - | - | - | - |
| 1777869019 | 15° C | 55% | 947.6 hPa | - | - | - | - |
| 1777868119 | 15° C | 55% | 947.7 hPa | - | - | - | - |
| 1777867219 | 17.22° C | 49% | 947.6 hPa | - | - | - | - |
| 1777866319 | 16.11° C | 51% | 947.8 hPa | - | - | - | - |
| 1777865419 | 16.67° C | 49% | 947.9 hPa | - | - | - | - |
| 1777864518 | 16.67° C | 48% | 948 hPa | - | - | - | - |
| 1777863618 | 17.22° C | 49% | 948.1 hPa | - | - | - | - |
| 1777862717 | 16.67° C | 49% | 948.1 hPa | - | - | - | - |
| 1777861817 | 16.67° C | 49% | 948.1 hPa | - | - | - | - |
| 1777860917 | 17.22° C | 48% | 948 hPa | - | - | - | - |
| 1777860017 | 17.78° C | 46% | 947.9 hPa | - | - | - | - |
| 1777859117 | 18.33° C | 45% | 947.9 hPa | - | - | - | - |
| 1777858217 | 17.78° C | 46% | 947.8 hPa | - | - | - | - |
| 1777857316 | 18.33° C | 44% | 947.7 hPa | - | - | - | - |
| 1777856416 | 17.78° C | 44% | 947.6 hPa | - | - | - | - |
| 1777855516 | 18.33° C | 42% | 947.5 hPa | - | - | - | - |
| 1777854616 | 17.22° C | 46% | 947.4 hPa | - | - | - | - |
| 1777853716 | 17.78° C | 45% | 947.2 hPa | - | - | - | - |
* Rain since midnight (hover to see other rain measurements)
** Current wind speed in m/s (hover to see current wind gust speed)